Time;durP1;ratioP1;P1;durP2;ratioP2;P2;SDS_P1;SDS_P2;PMS_P1;PMS_P2;Temp;Humidity;BMP_temperature;BMP_pressure;BME280_temperature;BME280_humidity;BME280_pressure;Samples;Min_cycle;Max_cycle;Signal;HPM_P1;HPM_P2
2023/03/25 00:00:43;;;;;;;2.50;0.93;;;12.60;94.20;;;;;;4963635;28;20457;-83
2023/03/25 00:03:23;;;;;;;1.07;0.70;;;12.30;94.50;;;;;;4950900;28;20449;-85
2023/03/25 00:10:19;;;;;;;;;;;;;;;;;;;;;
2023/03/25 00:13:33;;;;;;;0.87;0.77;;;12.40;94.30;;;;;;4966416;28;20464;-84
2023/03/25 00:16:28;;;;;;;1.27;0.70;;;12.10;94.80;;;;;;4916795;28;20461;-82
2023/03/25 00:19:08;;;;;;;4.00;1.00;;;12.20;95.20;;;;;;5008915;28;20526;-82
2023/03/25 00:21:45;;;;;;;2.60;1.37;;;12.30;94.70;;;;;;5009325;28;21409;-82
2023/03/25 00:24:39;;;;;;;4.40;1.30;;;12.30;94.60;;;;;;5007230;28;20455;-82
2023/03/25 00:27:29;;;;;;;4.77;1.07;;;12.40;94.50;;;;;;5008583;28;20466;-82
2023/03/25 00:30:32;;;;;;;2.10;0.80;;;12.50;94.10;;;;;;5017458;28;20471;-81
2023/03/25 00:36:18;;;;;;;2.40;0.90;;;12.40;93.80;;;;;;5024676;28;20454;-82
2023/03/25 00:43:05;;;;;;;4.53;0.90;;;12.40;93.70;;;;;;5025534;28;20501;-85
2023/03/25 00:46:03;;;;;;;1.90;0.80;;;12.50;93.90;;;;;;5022510;28;20472;-83
2023/03/25 00:48:40;;;;;;;3.03;1.13;;;12.60;93.50;;;;;;5022467;28;20481;-84
2023/03/25 00:51:51;;;;;;;4.97;1.13;;;12.50;93.10;;;;;;5020353;28;20457;-84
2023/03/25 00:54:51;;;;;;;2.53;1.23;;;12.40;93.10;;;;;;5018822;28;20460;-82
2023/03/25 00:57:45;;;;;;;4.10;1.00;;;12.40;93.10;;;;;;4980615;28;20521;-83
2023/03/25 01:01:20;;;;;;;0.80;0.67;;;12.40;93.00;;;;;;4989637;28;20477;-84
2023/03/25 01:04:16;;;;;;;4.07;1.53;;;12.30;93.20;;;;;;4988814;28;20489;-82
2023/03/25 01:07:24;;;;;;;5.27;1.13;;;12.10;93.40;;;;;;4974108;28;20521;-82
2023/03/25 01:10:22;;;;;;;2.73;1.13;;;12.10;93.80;;;;;;4989969;28;20455;-84
2023/03/25 01:13:02;;;;;;;3.17;0.97;;;12.10;94.10;;;;;;5009018;28;20494;-83
2023/03/25 01:16:01;;;;;;;2.53;1.00;;;12.20;93.70;;;;;;4988291;28;20495;-83
2023/03/25 01:19:00;;;;;;;0.80;0.70;;;12.20;93.90;;;;;;4981908;28;20503;-84
2023/03/25 01:21:45;;;;;;;4.63;0.90;;;12.30;93.60;;;;;;4989836;28;20498;-84
2023/03/25 01:24:47;;;;;;;2.00;0.87;;;12.40;93.30;;;;;;4986588;28;20934;-83
2023/03/25 01:27:33;;;;;;;1.70;0.90;;;12.40;93.50;;;;;;4985200;28;21206;-83
2023/03/25 01:34:18;;;;;;;4.33;0.90;;;12.50;92.80;;;;;;4902132;29;20469;-83
2023/03/25 01:37:17;;;;;;;1.80;0.80;;;12.40;92.90;;;;;;4897930;29;20553;-83
2023/03/25 01:40:25;;;;;;;4.53;1.00;;;12.20;93.20;;;;;;4914350;29;20605;-83
2023/03/25 01:43:30;;;;;;;1.70;0.90;;;12.30;93.20;;;;;;4896904;29;20458;-83
2023/03/25 01:46:33;;;;;;;2.87;0.80;;;12.30;93.00;;;;;;4914596;29;20469;-81
2023/03/25 01:49:41;;;;;;;1.30;0.87;;;12.10;93.70;;;;;;4904848;29;20497;-82
2023/03/25 01:52:20;;;;;;;2.30;1.03;;;12.30;93.30;;;;;;4899962;29;20474;-83
2023/03/25 01:54:49;;;;;;;2.10;0.60;;;12.40;92.80;;;;;;4911042;29;21037;-83
2023/03/25 01:57:19;;;;;;;2.43;1.00;;;12.40;92.50;;;;;;4914489;29;20469;-84
2023/03/25 01:59:47;;;;;;;1.50;0.80;;;12.20;92.70;;;;;;4903370;29;20496;-82
2023/03/25 02:02:18;;;;;;;1.30;0.70;;;12.20;93.20;;;;;;4917299;29;20505;-83
2023/03/25 02:04:59;;;;;;;2.20;0.80;;;12.10;93.70;;;;;;4898370;29;20442;-84
2023/03/25 02:07:34;;;;;;;2.50;0.80;;;12.00;94.70;;;;;;4992315;28;20453;-84
2023/03/25 02:10:08;;;;;;;1.63;0.80;;;11.90;95.00;;;;;;4995117;28;20471;-81
2023/03/25 02:12:35;;;;;;;2.80;0.80;;;11.80;95.60;;;;;;4996873;28;20458;-82
2023/03/25 02:15:05;;;;;;;4.27;0.97;;;11.80;96.00;;;;;;4995280;28;20441;-83
2023/03/25 02:17:32;;;;;;;5.03;1.10;;;11.80;96.30;;;;;;4995097;28;20524;-83
2023/03/25 02:20:23;;;;;;;1.27;0.70;;;11.70;96.70;;;;;;4988001;28;20866;-83
2023/03/25 02:23:20;;;;;;;1.87;0.80;;;11.90;97.00;;;;;;4992447;28;21026;-83
2023/03/25 02:26:16;;;;;;;2.50;1.10;;;11.90;96.70;;;;;;4992248;28;21133;-82
2023/03/25 02:28:50;;;;;;;2.80;0.93;;;11.80;97.20;;;;;;4991082;28;20854;-83
2023/03/25 02:31:42;;;;;;;1.23;0.70;;;11.70;98.00;;;;;;4992332;28;20497;-83
2023/03/25 02:34:36;;;;;;;2.70;0.70;;;11.60;97.40;;;;;;4992484;28;20466;-83
2023/03/25 02:37:25;;;;;;;1.57;0.63;;;11.80;97.60;;;;;;4991527;28;20495;-84
2023/03/25 02:40:00;;;;;;;2.23;1.00;;;11.50;98.10;;;;;;4992592;28;20447;-83
2023/03/25 02:42:33;;;;;;;2.20;0.83;;;11.40;99.40;;;;;;4991161;28;20450;-82
2023/03/25 02:45:12;;;;;;;1.87;0.80;;;11.60;99.70;;;;;;4991370;28;21671;-82
2023/03/25 02:47:46;;;;;;;2.63;1.10;;;11.30;99.70;;;;;;4991289;28;20501;-81
2023/03/25 02:50:22;;;;;;;1.60;1.00;;;11.10;99.90;;;;;;4990647;28;20470;-83
2023/03/25 02:52:54;;;;;;;0.83;0.73;;;11.20;99.90;;;;;;4990258;28;20592;-82
2023/03/25 02:55:24;;;;;;;1.07;0.80;;;11.20;99.90;;;;;;4993371;28;20520;-82
2023/03/25 02:57:56;;;;;;;4.13;1.07;;;11.40;99.90;;;;;;4985514;28;21118;-84
2023/03/25 03:00:27;;;;;;;2.07;0.80;;;11.40;99.90;;;;;;4989119;28;20474;-83
2023/03/25 03:03:00;;;;;;;1.27;1.17;;;11.30;99.90;;;;;;4988729;28;20458;-80
2023/03/25 03:05:38;;;;;;;6.13;1.33;;;11.30;99.90;;;;;;4985326;28;20461;-83
2023/03/25 03:08:38;;;;;;;3.00;0.90;;;11.30;99.90;;;;;;4993218;28;20508;-83
2023/03/25 03:11:14;;;;;;;1.53;1.10;;;11.20;99.90;;;;;;4993129;28;20482;-83
2023/03/25 03:13:48;;;;;;;3.53;1.20;;;11.20;99.90;;;;;;4994478;28;20454;-83
2023/03/25 03:16:33;;;;;;;3.00;1.10;;;11.30;99.90;;;;;;4999647;28;20458;-82
2023/03/25 03:19:27;;;;;;;3.23;1.20;;;11.20;99.90;;;;;;4994196;28;20840;-83
2023/03/25 03:22:34;;;;;;;2.33;0.80;;;11.20;99.90;;;;;;4994164;28;21021;-83
2023/03/25 03:25:35;;;;;;;2.93;1.00;;;11.20;99.90;;;;;;4996398;28;21015;-83
2023/03/25 03:28:15;;;;;;;1.93;1.20;;;11.30;99.70;;;;;;4953197;28;20568;-82
2023/03/25 03:31:11;;;;;;;3.17;0.80;;;11.30;99.30;;;;;;4995760;28;20482;-83
2023/03/25 03:33:50;;;;;;;3.70;0.87;;;11.70;97.40;;;;;;4996384;28;20472;-84
2023/03/25 03:36:22;;;;;;;0.70;0.70;;;11.40;97.50;;;;;;5006191;28;20469;-82
2023/03/25 03:38:57;;;;;;;3.53;1.03;;;11.20;98.00;;;;;;5005559;28;20450;-83
2023/03/25 03:41:26;;;;;;;3.70;0.70;;;11.20;98.40;;;;;;5021766;28;20486;-83
2023/03/25 03:44:29;;;;;;;5.87;1.00;;;11.20;98.50;;;;;;5000931;28;20499;-83
2023/03/25 03:47:07;;;;;;;2.03;0.80;;;11.40;98.10;;;;;;4943358;28;20481;-83
2023/03/25 03:49:41;;;;;;;3.17;1.10;;;11.40;98.20;;;;;;4988598;28;20482;-84
2023/03/25 03:52:21;;;;;;;1.50;1.10;;;11.60;97.70;;;;;;4995948;28;20572;-82
2023/03/25 03:54:53;;;;;;;3.03;0.90;;;11.70;97.00;;;;;;4998318;28;20477;-83
2023/03/25 03:57:48;;;;;;;1.87;0.80;;;11.50;97.20;;;;;;4995120;28;21016;-83
2023/03/25 04:00:21;;;;;;;3.57;0.90;;;11.60;97.00;;;;;;4991241;28;20531;-83
2023/03/25 04:03:27;;;;;;;3.50;2.03;;;11.50;96.60;;;;;;4994800;28;20481;-83
2023/03/25 04:06:06;;;;;;;2.03;1.10;;;11.40;97.10;;;;;;4994404;28;20573;-84
2023/03/25 04:08:42;;;;;;;4.20;0.80;;;11.20;97.10;;;;;;5013027;28;20491;-83
2023/03/25 04:11:15;;;;;;;1.10;0.97;;;11.10;97.60;;;;;;5017548;28;20493;-84
2023/03/25 04:13:45;;;;;;;1.43;0.80;;;11.30;97.50;;;;;;5043665;28;20454;-81
2023/03/25 04:16:12;;;;;;;3.53;1.20;;;11.50;96.80;;;;;;5028182;28;20482;-83
2023/03/25 04:18:39;;;;;;;2.50;1.40;;;11.30;96.60;;;;;;5026743;28;20466;-84
2023/03/25 04:21:06;;;;;;;1.67;0.90;;;11.20;97.00;;;;;;5024809;28;20489;-83
2023/03/25 04:23:33;;;;;;;0.80;0.60;;;11.20;96.60;;;;;;5032012;28;20459;-83
2023/03/25 04:26:01;;;;;;;3.77;1.43;;;11.10;96.70;;;;;;5009057;28;20494;-83
2023/03/25 04:28:28;;;;;;;3.73;0.90;;;11.20;96.40;;;;;;5009796;28;20579;-84
2023/03/25 04:30:56;;;;;;;2.80;1.00;;;11.40;96.30;;;;;;5008483;28;20569;-83
2023/03/25 04:33:24;;;;;;;5.90;1.47;;;11.30;96.00;;;;;;5009162;28;20453;-83
2023/03/25 04:35:52;;;;;;;4.30;1.20;;;11.30;96.00;;;;;;5005654;28;21572;-84
2023/03/25 04:38:19;;;;;;;2.83;1.03;;;11.50;95.90;;;;;;5021030;28;20547;-81
2023/03/25 04:40:46;;;;;;;6.47;1.87;;;11.60;95.50;;;;;;5023306;28;20462;-83
2023/03/25 04:43:15;;;;;;;5.17;1.00;;;11.40;95.30;;;;;;5012064;28;20470;-84
2023/03/25 04:45:47;;;;;;;3.10;1.10;;;11.60;95.50;;;;;;5040795;28;20458;-83
2023/03/25 04:48:28;;;;;;;3.23;0.77;;;11.50;95.10;;;;;;5024054;28;20492;-83
2023/03/25 04:51:00;;;;;;;2.47;0.97;;;11.20;95.60;;;;;;4999887;28;20573;-82
2023/03/25 04:53:28;;;;;;;4.93;1.13;;;11.30;95.70;;;;;;5023255;28;20481;-83
2023/03/25 04:55:55;;;;;;;4.30;1.00;;;11.30;95.70;;;;;;5024449;28;20454;-83
2023/03/25 04:58:22;;;;;;;3.60;1.10;;;11.30;95.80;;;;;;5025517;28;20846;-82
2023/03/25 05:00:50;;;;;;;1.70;1.10;;;11.20;95.80;;;;;;5020106;28;20473;-82
2023/03/25 05:03:23;;;;;;;2.30;1.23;;;11.20;95.90;;;;;;5014532;28;20455;-83
2023/03/25 05:05:51;;;;;;;1.70;0.97;;;11.50;95.40;;;;;;5004089;28;20489;-83
2023/03/25 05:08:20;;;;;;;2.67;1.23;;;11.30;95.10;;;;;;4994313;28;20994;-82
2023/03/25 05:10:47;;;;;;;2.73;1.30;;;11.70;94.70;;;;;;4992651;28;20465;-82
2023/03/25 05:13:14;;;;;;;2.30;0.90;;;11.70;94.50;;;;;;4989919;28;20466;-83
2023/03/25 05:15:42;;;;;;;2.00;0.70;;;11.70;94.70;;;;;;4991952;28;20473;-83
2023/03/25 05:18:12;;;;;;;3.73;1.40;;;11.50;94.50;;;;;;4991581;28;21547;-83
2023/03/25 05:20:41;;;;;;;3.20;1.20;;;11.60;94.30;;;;;;5004728;28;20477;-83
2023/03/25 05:23:11;;;;;;;0.63;0.63;;;11.40;94.60;;;;;;4991127;28;20447;-83
2023/03/25 05:25:39;;;;;;;4.13;1.97;;;11.40;94.80;;;;;;4993499;28;20458;-83
2023/03/25 05:28:08;;;;;;;3.27;1.13;;;11.40;94.60;;;;;;4994760;28;20457;-83
2023/03/25 05:30:38;;;;;;;2.33;1.30;;;11.50;94.30;;;;;;4990588;28;20479;-80
2023/03/25 05:33:05;;;;;;;3.00;1.40;;;11.40;94.40;;;;;;4988993;28;20461;-83
2023/03/25 05:35:32;;;;;;;3.53;0.77;;;11.30;94.60;;;;;;4990226;28;20520;-82
2023/03/25 05:37:58;;;;;;;4.03;0.97;;;11.30;94.70;;;;;;4991395;28;20455;-82
2023/03/25 05:40:25;;;;;;;2.20;0.80;;;11.30;94.70;;;;;;4993168;28;20486;-83
2023/03/25 05:42:53;;;;;;;3.77;1.00;;;11.40;94.80;;;;;;4996268;28;20469;-83
2023/03/25 05:45:21;;;;;;;2.60;0.93;;;11.70;94.20;;;;;;4999179;28;20450;-83
2023/03/25 05:47:48;;;;;;;4.00;0.90;;;11.40;94.30;;;;;;4999465;28;20465;-80
2023/03/25 05:50:15;;;;;;;3.70;1.10;;;11.30;94.80;;;;;;5007370;28;20504;-82
2023/03/25 05:52:42;;;;;;;3.33;0.80;;;11.30;95.00;;;;;;5004936;28;20451;-82
2023/03/25 05:55:16;;;;;;;2.50;0.90;;;11.40;95.00;;;;;;5008142;28;20961;-81
2023/03/25 05:57:45;;;;;;;5.33;1.20;;;11.60;94.30;;;;;;4986440;28;20879;-82
2023/03/25 06:00:17;;;;;;;3.97;1.03;;;11.60;94.10;;;;;;4993939;28;20881;-81
2023/03/25 06:02:45;;;;;;;4.60;1.13;;;11.80;94.00;;;;;;4996152;28;20585;-82
2023/03/25 06:05:15;;;;;;;5.83;2.33;;;11.70;93.70;;;;;;4994154;28;20465;-83
2023/03/25 06:07:47;;;;;;;3.33;1.30;;;11.50;94.00;;;;;;4999243;28;20466;-84
2023/03/25 06:10:17;;;;;;;4.37;1.20;;;11.70;94.30;;;;;;4994277;28;20474;-84
2023/03/25 06:12:46;;;;;;;3.07;1.10;;;11.60;93.80;;;;;;4995425;28;20726;-83
2023/03/25 06:15:16;;;;;;;3.07;1.27;;;11.70;93.90;;;;;;4996836;28;20446;-83
2023/03/25 06:17:46;;;;;;;4.43;1.33;;;11.80;93.80;;;;;;4996154;28;20512;-84
2023/03/25 06:20:15;;;;;;;3.83;1.17;;;11.70;93.50;;;;;;4995417;28;20502;-84
2023/03/25 06:22:44;;;;;;;2.10;1.20;;;11.50;93.80;;;;;;4993208;28;20458;-84
2023/03/25 06:25:19;;;;;;;4.53;1.20;;;11.50;94.10;;;;;;4994208;28;20534;-84
2023/03/25 06:27:48;;;;;;;4.13;1.20;;;11.80;93.80;;;;;;5013078;28;20481;-84
2023/03/25 06:30:18;;;;;;;3.23;1.20;;;11.80;93.60;;;;;;4993674;28;20489;-84
2023/03/25 06:32:49;;;;;;;3.50;1.43;;;11.50;93.80;;;;;;4995554;28;20460;-84
2023/03/25 06:35:20;;;;;;;5.17;1.70;;;11.70;93.90;;;;;;4996443;28;20486;-84
2023/03/25 06:37:48;;;;;;;3.93;1.33;;;11.90;93.20;;;;;;4994537;28;20454;-84
2023/03/25 06:40:15;;;;;;;4.60;1.13;;;11.80;92.90;;;;;;4992144;28;21731;-83
2023/03/25 06:42:41;;;;;;;4.30;1.13;;;11.80;93.00;;;;;;4993703;28;20453;-83
2023/03/25 06:45:09;;;;;;;5.77;1.27;;;11.80;93.00;;;;;;4995831;28;20461;-84
2023/03/25 06:47:35;;;;;;;7.23;1.97;;;11.90;92.90;;;;;;4996817;28;20461;-84
2023/03/25 06:52:37;;;;;;;8.90;1.37;;;11.60;93.40;;;;;;5306340;22;20523;-83
2023/03/25 06:55:05;;;;;;;4.37;1.50;;;11.50;93.60;;;;;;5046504;28;20480;-81
2023/03/25 06:57:31;;;;;;;3.23;1.40;;;11.60;93.80;;;;;;5035686;28;20548;-83
2023/03/25 06:59:58;;;;;;;3.30;1.63;;;11.70;93.60;;;;;;5039079;28;20484;-83
2023/03/25 07:02:25;;;;;;;5.67;1.10;;;11.60;93.60;;;;;;5042666;28;20460;-83
2023/03/25 07:04:51;;;;;;;1.30;1.10;;;11.60;93.90;;;;;;5059237;28;20444;-81
2023/03/25 07:07:18;;;;;;;2.00;1.10;;;11.60;94.40;;;;;;5056957;28;20436;-82
2023/03/25 07:09:49;;;;;;;6.73;1.07;;;11.50;95.40;;;;;;5037804;28;20487;-83
2023/03/25 07:12:15;;;;;;;1.77;0.80;;;11.40;95.90;;;;;;5032334;28;21620;-84
2023/03/25 07:14:43;;;;;;;3.03;1.90;;;11.30;96.60;;;;;;5037944;28;20469;-82
2023/03/25 07:17:11;;;;;;;3.90;1.37;;;11.30;96.90;;;;;;5035353;28;20457;-84
2023/03/25 07:19:37;;;;;;;4.80;1.07;;;11.20;97.20;;;;;;5035984;28;20472;-83
2023/03/25 07:22:04;;;;;;;3.83;1.20;;;11.60;96.60;;;;;;5036676;28;20480;-84
2023/03/25 07:24:31;;;;;;;2.90;0.93;;;11.40;96.70;;;;;;5040763;28;20448;-83
2023/03/25 07:26:58;;;;;;;2.30;0.93;;;11.30;97.10;;;;;;5040939;28;20490;-83
2023/03/25 07:29:24;;;;;;;1.60;0.60;;;11.70;97.00;;;;;;5049202;28;20476;-81
2023/03/25 07:31:51;;;;;;;1.30;0.80;;;11.50;96.80;;;;;;5044765;28;20522;-81
2023/03/25 07:34:17;;;;;;;1.93;0.97;;;11.80;97.10;;;;;;5049519;28;20436;-82
2023/03/25 07:36:44;;;;;;;2.07;0.80;;;11.90;97.20;;;;;;5048308;28;20472;-82
2023/03/25 07:39:11;;;;;;;2.50;1.00;;;12.30;96.90;;;;;;5049499;28;20452;-83
2023/03/25 07:41:37;;;;;;;2.53;1.20;;;12.80;95.30;;;;;;5051894;28;20470;-83
2023/03/25 07:44:04;;;;;;;2.87;1.27;;;12.70;94.10;;;;;;5047939;28;20464;-82
2023/03/25 07:46:31;;;;;;;2.30;0.90;;;12.10;94.60;;;;;;5050517;28;20448;-82
2023/03/25 07:48:58;;;;;;;3.13;1.13;;;12.10;95.20;;;;;;5049724;28;20539;-82
2023/03/25 07:51:25;;;;;;;1.10;0.60;;;11.70;95.50;;;;;;5048949;28;20484;-83
2023/03/25 07:53:51;;;;;;;1.70;0.67;;;11.70;96.00;;;;;;5051447;28;20465;-81
2023/03/25 07:56:19;;;;;;;5.67;0.80;;;11.50;96.20;;;;;;5052003;28;20536;-82
2023/03/25 07:58:48;;;;;;;6.37;0.93;;;11.80;96.10;;;;;;5051883;28;20468;-82
2023/03/25 08:01:15;;;;;;;1.83;0.80;;;11.70;96.20;;;;;;5051672;28;20448;-83
2023/03/25 08:03:41;;;;;;;3.13;0.90;;;11.70;96.20;;;;;;5053138;28;20444;-83
2023/03/25 08:06:08;;;;;;;3.33;1.37;;;11.80;96.40;;;;;;5052390;28;20440;-83
2023/03/25 08:08:35;;;;;;;3.20;0.87;;;11.70;96.40;;;;;;5050574;28;20526;-82
2023/03/25 08:11:02;;;;;;;1.77;0.70;;;11.60;96.60;;;;;;5047157;28;20564;-83
2023/03/25 08:13:29;;;;;;;1.93;0.80;;;11.60;96.70;;;;;;5052342;28;20488;-81
2023/03/25 08:15:56;;;;;;;4.07;1.20;;;11.50;96.60;;;;;;5051679;28;20453;-83
2023/03/25 08:18:23;;;;;;;2.27;0.93;;;11.80;96.60;;;;;;5057176;28;20488;-83
2023/03/25 08:20:51;;;;;;;3.37;1.00;;;11.70;96.40;;;;;;5057909;28;20471;-82
2023/03/25 08:23:18;;;;;;;4.37;1.20;;;11.90;96.60;;;;;;5052597;28;20460;-83
2023/03/25 08:25:48;;;;;;;1.73;1.00;;;12.10;96.10;;;;;;5052748;28;20835;-81
2023/03/25 08:28:22;;;;;;;3.17;1.30;;;12.70;94.90;;;;;;5049540;28;20684;-83
2023/03/25 08:30:53;;;;;;;2.40;1.20;;;12.80;94.40;;;;;;5047219;28;20484;-83
2023/03/25 08:33:25;;;;;;;1.80;0.90;;;13.20;93.60;;;;;;5047229;28;20455;-82
2023/03/25 08:35:55;;;;;;;1.97;1.10;;;13.40;93.00;;;;;;5047034;28;20532;-81
2023/03/25 08:38:24;;;;;;;1.97;1.00;;;13.50;92.00;;;;;;5046199;28;20475;-81
2023/03/25 08:40:51;;;;;;;3.80;1.27;;;13.40;92.00;;;;;;5042937;28;20480;-80
2023/03/25 08:43:18;;;;;;;5.50;1.20;;;13.40;91.80;;;;;;5046226;28;20448;-82
2023/03/25 08:45:45;;;;;;;5.37;1.40;;;13.20;91.70;;;;;;5047051;28;20527;-82
2023/03/25 08:48:11;;;;;;;3.33;1.27;;;12.90;91.80;;;;;;5043940;28;20490;-82
2023/03/25 08:50:38;;;;;;;5.90;1.73;;;12.60;92.20;;;;;;5044048;28;20484;-80
2023/03/25 08:53:05;;;;;;;2.63;1.20;;;12.40;92.50;;;;;;5045065;28;20459;-82
2023/03/25 08:55:32;;;;;;;8.83;1.50;;;12.20;92.90;;;;;;5033767;28;21019;-83
2023/03/25 08:58:03;;;;;;;3.33;1.13;;;12.20;93.20;;;;;;5036640;28;20465;-83
2023/03/25 09:00:31;;;;;;;4.50;1.30;;;12.20;93.20;;;;;;5035266;28;21312;-85
2023/03/25 09:02:59;;;;;;;2.70;1.00;;;12.20;93.10;;;;;;5036204;28;20453;-81
2023/03/25 09:05:26;;;;;;;4.60;1.27;;;12.20;93.10;;;;;;5037286;28;20449;-82
2023/03/25 09:07:52;;;;;;;3.93;1.53;;;12.30;92.60;;;;;;5045474;28;20537;-83
2023/03/25 09:10:19;;;;;;;5.07;1.77;;;12.60;92.40;;;;;;5045977;28;20494;-84
2023/03/25 09:12:46;;;;;;;6.70;1.37;;;12.40;92.40;;;;;;5049277;28;20468;-82
2023/03/25 09:15:13;;;;;;;7.50;2.63;;;12.20;92.40;;;;;;5048744;28;20459;-82
2023/03/25 09:17:41;;;;;;;4.63;1.37;;;12.20;92.60;;;;;;5038375;28;20464;-83
2023/03/25 09:20:08;;;;;;;3.00;1.10;;;12.10;92.60;;;;;;5043813;28;20551;-83
2023/03/25 09:22:36;;;;;;;4.80;1.70;;;12.10;92.40;;;;;;5044159;28;20532;-83
2023/03/25 09:25:03;;;;;;;5.40;1.63;;;12.10;92.00;;;;;;5033611;28;20464;-83
2023/03/25 09:27:30;;;;;;;7.70;1.77;;;12.10;91.80;;;;;;5034462;28;20457;-84
2023/03/25 09:29:56;;;;;;;4.10;1.47;;;12.10;92.00;;;;;;5037741;28;20520;-82
2023/03/25 09:32:24;;;;;;;6.70;2.10;;;12.10;92.10;;;;;;5037879;28;21425;-84
2023/03/25 09:34:51;;;;;;;3.77;1.80;;;12.10;92.20;;;;;;5040625;28;20562;-84
2023/03/25 09:37:18;;;;;;;6.23;2.30;;;12.20;92.30;;;;;;5039517;28;20445;-83
2023/03/25 09:39:45;;;;;;;6.57;2.00;;;12.40;92.00;;;;;;5038021;28;20451;-83
2023/03/25 09:42:47;;;;;;;7.00;1.37;;;12.50;92.00;;;;;;5037671;28;20857;-83
2023/03/25 09:45:32;;;;;;;8.53;1.47;;;12.40;91.60;;;;;;5039011;28;21054;-83
2023/03/25 09:48:24;;;;;;;5.83;1.70;;;12.40;91.60;;;;;;5039800;28;20443;-83
2023/03/25 09:50:51;;;;;;;5.23;1.70;;;12.50;91.10;;;;;;5031216;28;20488;-83
2023/03/25 09:53:42;;;;;;;7.03;1.33;;;12.40;91.00;;;;;;5042789;28;21313;-82
2023/03/25 09:56:19;;;;;;;4.33;1.37;;;12.40;90.90;;;;;;5043270;28;20451;-83
2023/03/25 09:58:57;;;;;;;4.87;1.10;;;12.40;91.00;;;;;;5039619;28;20527;-83
2023/03/25 10:01:50;;;;;;;1.00;0.70;;;12.40;91.20;;;;;;5038496;28;20479;-84
2023/03/25 10:04:56;;;;;;;3.23;0.90;;;12.70;91.40;;;;;;5045342;28;20445;-82
2023/03/25 10:07:49;;;;;;;3.67;1.13;;;12.70;91.10;;;;;;5042218;28;20452;-82
2023/03/25 10:10:35;;;;;;;5.17;1.17;;;12.60;91.20;;;;;;5042448;28;20598;-84
2023/03/25 10:13:13;;;;;;;3.97;1.13;;;12.70;91.20;;;;;;5053135;28;20460;-81
2023/03/25 10:15:53;;;;;;;3.73;1.40;;;12.70;90.90;;;;;;5059015;28;20425;-81
2023/03/25 10:18:31;;;;;;;6.17;1.60;;;12.70;90.60;;;;;;5063122;28;20483;-81
2023/03/25 10:21:14;;;;;;;6.90;1.80;;;12.70;90.40;;;;;;5064669;28;20572;-83
2023/03/25 10:24:02;;;;;;;4.07;1.70;;;12.60;91.10;;;;;;5063614;28;20440;-81
2023/03/25 10:26:42;;;;;;;3.37;1.63;;;13.00;90.80;;;;;;5058956;28;20562;-82
2023/03/25 10:29:15;;;;;;;8.27;1.80;;;12.80;90.50;;;;;;5025203;28;20459;-82
2023/03/25 10:31:53;;;;;;;6.43;1.30;;;12.60;91.40;;;;;;5064414;28;20500;-83
2023/03/25 10:34:30;;;;;;;6.20;1.80;;;12.90;92.80;;;;;;5078372;28;20499;-83
2023/03/25 10:36:59;;;;;;;5.50;1.23;;;12.80;92.80;;;;;;5062699;28;20539;-81
2023/03/25 10:39:36;;;;;;;7.60;2.20;;;13.40;93.40;;;;;;5060175;28;20465;-80
2023/03/25 10:42:26;;;;;;;3.50;1.40;;;13.10;93.00;;;;;;5057756;28;20501;-84
2023/03/25 10:44:53;;;;;;;4.60;1.87;;;13.50;92.60;;;;;;5047700;28;20475;-84
2023/03/25 10:47:27;;;;;;;5.10;1.80;;;14.30;92.00;;;;;;5047025;28;20437;-83
2023/03/25 10:49:55;;;;;;;3.43;1.80;;;15.10;90.00;;;;;;5049020;28;20480;-82
2023/03/25 10:52:22;;;;;;;5.50;2.00;;;15.40;87.40;;;;;;5035898;28;20481;-82
2023/03/25 10:54:55;;;;;;;6.23;1.80;;;15.60;84.80;;;;;;5042965;28;20452;-84
2023/03/25 10:57:30;;;;;;;5.77;1.70;;;15.90;83.80;;;;;;5043956;28;20428;-83
2023/03/25 11:00:05;;;;;;;5.47;2.10;;;15.50;81.60;;;;;;5047429;28;20452;-82
2023/03/25 11:02:32;;;;;;;3.90;2.00;;;14.90;82.90;;;;;;5052802;28;20547;-80
2023/03/25 11:05:03;;;;;;;4.13;1.57;;;14.50;83.80;;;;;;5050655;28;20569;-83
2023/03/25 11:07:38;;;;;;;2.97;1.20;;;14.20;85.90;;;;;;5050218;28;20463;-82
2023/03/25 11:10:14;;;;;;;5.90;2.03;;;14.20;89.00;;;;;;5048394;28;20491;-80
2023/03/25 11:12:44;;;;;;;2.83;1.30;;;13.70;91.50;;;;;;5051409;28;20444;-84
2023/03/25 11:15:22;;;;;;;1.90;1.20;;;13.50;93.00;;;;;;5048220;28;20456;-81
2023/03/25 11:18:03;;;;;;;4.13;1.20;;;13.60;93.40;;;;;;5042498;28;20551;-82
2023/03/25 11:20:38;;;;;;;6.03;1.80;;;14.10;92.40;;;;;;5028690;28;20575;-83
2023/03/25 11:23:35;;;;;;;3.93;1.50;;;14.30;91.60;;;;;;5037937;28;20463;-83
2023/03/25 11:26:07;;;;;;;3.60;1.63;;;14.50;91.60;;;;;;5037727;28;20450;-83
2023/03/25 11:28:49;;;;;;;5.17;1.30;;;14.90;89.30;;;;;;5034916;28;20453;-82
2023/03/25 11:31:20;;;;;;;4.60;1.50;;;14.90;88.80;;;;;;5036767;28;20506;-80
2023/03/25 11:34:10;;;;;;;5.17;1.30;;;14.90;89.20;;;;;;5034530;28;20568;-82
2023/03/25 11:36:39;;;;;;;2.40;1.30;;;14.80;88.30;;;;;;5032266;28;20451;-84
2023/03/25 11:39:17;;;;;;;3.30;1.37;;;15.00;86.00;;;;;;5048773;28;20440;-84
2023/03/25 11:41:45;;;;;;;2.10;1.23;;;14.50;85.70;;;;;;5063433;28;20460;-85
2023/03/25 11:44:27;;;;;;;4.13;1.47;;;14.20;85.90;;;;;;5063524;28;20452;-85
2023/03/25 11:47:02;;;;;;;3.03;1.17;;;14.00;86.50;;;;;;5061791;28;20424;-84
2023/03/25 11:49:34;;;;;;;1.60;1.20;;;14.10;86.50;;;;;;5054767;28;20456;-84
2023/03/25 11:52:13;;;;;;;2.70;1.30;;;14.40;85.00;;;;;;5047809;28;20499;-84
2023/03/25 11:54:41;;;;;;;3.10;1.17;;;14.80;84.10;;;;;;5045894;28;20473;-84
2023/03/25 11:57:18;;;;;;;5.47;1.30;;;15.20;83.70;;;;;;5041506;28;20461;-84
2023/03/25 11:59:46;;;;;;;4.10;1.17;;;15.60;82.60;;;;;;5041278;28;20467;-84
2023/03/25 12:02:19;;;;;;;3.23;1.47;;;15.70;80.40;;;;;;5041201;28;20477;-83
2023/03/25 12:05:12;;;;;;;2.00;1.20;;;15.90;78.20;;;;;;5042908;28;20467;-83
2023/03/25 12:07:46;;;;;;;4.13;1.73;;;15.40;78.40;;;;;;5034589;28;20899;-83
2023/03/25 12:10:17;;;;;;;4.23;1.40;;;15.20;80.00;;;;;;5040414;28;20479;-81
2023/03/25 12:13:08;;;;;;;3.70;1.50;;;14.90;80.30;;;;;;5039349;28;20449;-83
2023/03/25 12:15:44;;;;;;;4.17;1.33;;;15.20;80.30;;;;;;5041431;28;20452;-84
2023/03/25 12:18:42;;;;;;;4.87;1.17;;;14.90;79.60;;;;;;5038515;28;20447;-83
2023/03/25 12:21:24;;;;;;;4.07;1.10;;;14.70;80.30;;;;;;5035385;28;20606;-82
2023/03/25 12:24:21;;;;;;;3.80;1.23;;;14.40;80.40;;;;;;5035926;28;21396;-84
2023/03/25 12:27:03;;;;;;;3.03;1.33;;;14.40;80.50;;;;;;5036495;28;20462;-83
2023/03/25 12:29:54;;;;;;;4.50;1.10;;;14.60;79.90;;;;;;5037108;28;20503;-84
2023/03/25 12:32:39;;;;;;;2.17;1.20;;;14.90;79.50;;;;;;5038230;28;20848;-83
2023/03/25 12:35:32;;;;;;;3.47;1.37;;;15.10;78.00;;;;;;5038584;28;20464;-83
2023/03/25 12:38:21;;;;;;;3.27;1.50;;;15.30;77.50;;;;;;5040014;28;20473;-83
2023/03/25 12:41:13;;;;;;;7.80;1.20;;;15.10;76.40;;;;;;5040312;28;20472;-82
2023/03/25 12:44:00;;;;;;;7.73;1.50;;;15.10;77.50;;;;;;5061029;28;20475;-81
2023/03/25 12:46:49;;;;;;;3.27;1.37;;;15.30;76.30;;;;;;5059747;28;20472;-83
2023/03/25 12:49:21;;;;;;;1.60;1.03;;;15.50;75.40;;;;;;5059809;28;20467;-84
2023/03/25 12:51:54;;;;;;;5.03;2.03;;;15.70;74.30;;;;;;5060464;28;20479;-84
2023/03/25 12:54:40;;;;;;;3.97;1.30;;;16.10;73.40;;;;;;5054641;28;20475;-83
2023/03/25 12:57:44;;;;;;;4.83;1.63;;;16.20;72.50;;;;;;5036821;28;20643;-83
2023/03/25 13:00:40;;;;;;;2.70;1.00;;;16.40;71.90;;;;;;5038017;28;20446;-83
2023/03/25 13:03:26;;;;;;;6.43;1.30;;;16.90;69.40;;;;;;5051541;28;21361;-83
2023/03/25 13:05:57;;;;;;;5.50;1.60;;;16.70;69.60;;;;;;5036027;28;20679;-83
2023/03/25 13:08:28;;;;;;;3.77;1.50;;;17.00;68.90;;;;;;5038536;28;20453;-82
2023/03/25 13:11:32;;;;;;;3.30;1.17;;;16.70;69.40;;;;;;5035246;28;21876;-83
2023/03/25 13:14:13;;;;;;;7.20;1.20;;;16.80;69.70;;;;;;5026609;28;20510;-83
2023/03/25 13:16:42;;;;;;;3.33;1.40;;;16.90;67.10;;;;;;5035261;28;20460;-84
2023/03/25 13:19:21;;;;;;;6.63;1.00;;;16.40;67.90;;;;;;5040722;28;22613;-83
2023/03/25 13:22:22;;;;;;;6.40;1.30;;;16.10;69.20;;;;;;5051775;28;20477;-84
2023/03/25 13:24:59;;;;;;;2.93;1.30;;;15.90;69.90;;;;;;5023777;28;20460;-83
2023/03/25 13:27:39;;;;;;;2.83;1.67;;;15.60;71.10;;;;;;5027519;28;20447;-83
2023/03/25 13:30:41;;;;;;;3.63;1.30;;;15.50;70.90;;;;;;5041993;28;20496;-83
2023/03/25 13:33:29;;;;;;;9.00;1.30;;;15.30;71.20;;;;;;5040819;28;20511;-83
2023/03/25 13:36:19;;;;;;;2.90;1.10;;;15.20;69.80;;;;;;5046088;28;20451;-83
2023/03/25 13:38:52;;;;;;;5.53;1.67;;;15.10;71.90;;;;;;5044953;28;20535;-81
2023/03/25 13:41:33;;;;;;;4.50;1.50;;;14.90;72.70;;;;;;5030677;28;20483;-83
2023/03/25 13:44:12;;;;;;;3.33;1.60;;;14.80;74.00;;;;;;5036622;28;20475;-83
2023/03/25 13:47:21;;;;;;;4.63;1.77;;;14.60;74.60;;;;;;5034677;28;20450;-83
2023/03/25 13:50:01;;;;;;;3.10;1.17;;;14.50;75.00;;;;;;4999967;28;20457;-83
2023/03/25 13:52:36;;;;;;;5.80;1.30;;;14.40;79.30;;;;;;5036374;28;20574;-82
2023/03/25 13:55:25;;;;;;;3.13;1.00;;;14.10;82.00;;;;;;5042012;28;20440;-84